Time;durP1;ratioP1;P1;durP2;ratioP2;P2;SDS_P1;SDS_P2;PMS_P1;PMS_P2;Temp;Humidity;BMP_temperature;BMP_pressure;BME280_temperature;BME280_humidity;BME280_pressure;Samples;Min_cycle;Max_cycle;Signal;HPM_P1;HPM_P2
2021/04/30 00:00:50;;;;;;;8.15;6.53;;;;;;;3.12;71.93;98935.94;4996357;28;20465;-62
2021/04/30 00:03:15;;;;;;;9.32;6.60;;;;;;;3.04;72.36;98928.16;5014096;28;20025;-61
2021/04/30 00:05:41;;;;;;;9.85;6.93;;;;;;;3.08;72.65;98926.75;5013618;28;20140;-61
2021/04/30 00:08:06;;;;;;;8.90;6.43;;;;;;;3.13;72.01;98926.97;5013983;28;20049;-61
2021/04/30 00:10:31;;;;;;;7.95;6.75;;;;;;;3.02;72.38;98924.88;5013748;28;20369;-61
2021/04/30 00:12:57;;;;;;;7.45;6.65;;;;;;;3.09;72.38;98925.72;5014124;28;20166;-61
2021/04/30 00:15:22;;;;;;;8.48;6.93;;;;;;;3.10;72.01;98930.00;5013277;28;20370;-61
2021/04/30 00:17:48;;;;;;;9.68;6.80;;;;;;;3.02;72.39;98935.47;5013852;28;20026;-61
2021/04/30 00:20:15;;;;;;;10.00;6.78;;;;;;;2.88;73.21;98924.06;4995812;28;20072;-61
2021/04/30 00:22:40;;;;;;;8.25;6.97;;;;;;;2.56;73.91;98931.69;5013963;28;20046;-61
2021/04/30 00:25:06;;;;;;;8.82;7.28;;;;;;;2.27;75.05;98919.56;5013364;28;20054;-61
2021/04/30 00:27:31;;;;;;;9.45;8.43;;;;;;;2.29;75.39;98924.66;5013921;28;20026;-61
2021/04/30 00:29:57;;;;;;;9.85;8.00;;;;;;;2.08;76.17;98925.56;5013657;28;20033;-61
2021/04/30 00:32:22;;;;;;;9.63;8.63;;;;;;;1.88;76.96;98931.53;5013225;28;20088;-61
2021/04/30 00:34:47;;;;;;;10.45;8.43;;;;;;;1.89;76.80;98930.53;5012169;28;20044;-61
2021/04/30 00:37:13;;;;;;;12.70;8.32;;;;;;;1.88;77.40;98926.25;5013117;28;20092;-61
2021/04/30 00:39:38;;;;;;;9.05;7.85;;;;;;;1.94;77.03;98932.59;5013716;28;20026;-61
2021/04/30 00:42:04;;;;;;;9.95;8.70;;;;;;;2.09;76.74;98935.13;5013123;28;20038;-61
2021/04/30 00:44:30;;;;;;;10.40;8.77;;;;;;;2.14;76.20;98932.72;5013420;28;20034;-61
2021/04/30 00:46:55;;;;;;;10.95;8.68;;;;;;;2.12;76.40;98940.00;5012879;28;20104;-60
2021/04/30 00:49:21;;;;;;;10.68;8.55;;;;;;;2.23;76.76;98943.97;4995689;28;20037;-61
2021/04/30 00:51:46;;;;;;;9.65;8.52;;;;;;;2.20;76.35;98937.22;4995338;28;20484;-62
2021/04/30 00:54:11;;;;;;;9.25;8.25;;;;;;;2.24;75.86;98937.66;5013255;28;20018;-61
2021/04/30 00:56:37;;;;;;;12.27;8.80;;;;;;;2.18;75.80;98939.25;5011574;28;20042;-61
2021/04/30 00:59:03;;;;;;;10.13;8.00;;;;;;;2.15;76.45;98944.94;5013264;28;20068;-61
2021/04/30 01:01:28;;;;;;;10.57;8.23;;;;;;;2.04;76.35;98946.28;5012588;28;20034;-61
2021/04/30 01:03:54;;;;;;;10.15;9.10;;;;;;;1.91;76.57;98948.84;4995592;28;20116;-61
2021/04/30 01:06:19;;;;;;;10.60;8.70;;;;;;;1.87;76.88;98953.72;5012757;28;20034;-61
2021/04/30 01:08:44;;;;;;;9.73;7.60;;;;;;;1.90;77.11;98957.78;5013061;28;20515;-61
2021/04/30 01:11:10;;;;;;;9.98;8.85;;;;;;;1.87;77.37;98959.00;4995052;28;20463;-61
2021/04/30 01:13:35;;;;;;;15.32;10.02;;;;;;;1.71;77.60;98956.63;5013087;28;20473;-60
2021/04/30 01:16:01;;;;;;;13.93;9.48;;;;;;;1.72;77.79;98966.19;5012315;28;20038;-61
2021/04/30 01:18:26;;;;;;;12.35;9.55;;;;;;;1.77;77.90;98963.78;5011770;28;20034;-60
2021/04/30 01:20:52;;;;;;;11.38;9.55;;;;;;;1.78;77.87;98965.44;5012728;28;20046;-61
2021/04/30 01:23:17;;;;;;;10.70;9.20;;;;;;;1.80;77.46;98978.44;5013026;28;20029;-61
2021/04/30 01:25:43;;;;;;;10.68;9.00;;;;;;;1.78;77.69;98970.72;5012327;28;20041;-61
2021/04/30 01:28:08;;;;;;;12.05;9.00;;;;;;;1.80;77.81;98973.97;5012903;28;20022;-61
2021/04/30 01:30:35;;;;;;;10.45;8.50;;;;;;;1.76;77.87;98972.72;5012343;28;20088;-61
2021/04/30 01:33:01;;;;;;;12.48;8.95;;;;;;;1.70;77.82;98973.50;5012681;28;20052;-61
2021/04/30 01:35:31;;;;;;;12.43;9.25;;;;;;;1.60;78.08;98975.63;5012211;28;20037;-61
2021/04/30 01:37:57;;;;;;;13.00;9.87;;;;;;;1.66;78.24;98985.44;5012838;28;20026;-61
2021/04/30 01:40:24;;;;;;;13.70;9.38;;;;;;;1.54;78.58;98992.25;5011112;28;20058;-61
2021/04/30 01:43:15;;;;;;;11.02;9.82;;;;;;;1.41;78.67;98985.03;5012374;28;20025;-61
2021/04/30 01:45:52;;;;;;;13.32;10.57;;;;;;;1.29;79.32;98976.78;4992713;28;20515;-61
2021/04/30 01:48:18;;;;;;;14.70;10.65;;;;;;;1.12;80.07;98973.56;4993066;28;20114;-61
2021/04/30 01:50:43;;;;;;;9.57;8.38;;;;;;;1.17;80.48;98975.66;4992813;28;20429;-61
2021/04/30 01:53:10;;;;;;;12.65;9.07;;;;;;;1.16;79.73;98976.66;4993233;28;20022;-61
2021/04/30 01:55:36;;;;;;;11.25;10.05;;;;;;;1.16;80.00;98974.84;4992404;28;20043;-60
2021/04/30 01:58:02;;;;;;;10.65;9.45;;;;;;;1.24;79.74;98973.88;4992997;28;20028;-60
2021/04/30 02:00:28;;;;;;;11.60;9.82;;;;;;;1.21;79.75;98971.63;4992471;28;20481;-60
2021/04/30 02:02:55;;;;;;;9.80;8.80;;;;;;;1.35;79.64;98972.56;4993024;28;20053;-61
2021/04/30 02:05:21;;;;;;;14.15;9.90;;;;;;;1.47;79.15;98971.06;4992766;28;20069;-61
2021/04/30 02:07:46;;;;;;;13.48;9.80;;;;;;;1.44;79.02;98974.88;4992786;28;20137;-60
2021/04/30 02:10:22;;;;;;;12.20;10.50;;;;;;;1.37;79.51;98984.56;4992682;28;20033;-60
2021/04/30 02:12:48;;;;;;;13.00;10.45;;;;;;;1.32;79.33;98981.69;4992920;28;20504;-61
2021/04/30 02:15:15;;;;;;;15.63;10.88;;;;;;;1.20;79.65;98972.63;4975085;28;20381;-61
2021/04/30 02:17:40;;;;;;;12.20;10.05;;;;;;;1.16;79.83;98974.03;4992934;28;20025;-61
2021/04/30 02:20:06;;;;;;;13.00;10.32;;;;;;;1.19;80.05;98971.00;4992491;28;20060;-61
2021/04/30 02:22:32;;;;;;;12.10;10.80;;;;;;;1.18;80.07;98969.38;4992943;28;20026;-61
2021/04/30 02:24:57;;;;;;;12.45;9.65;;;;;;;1.20;80.09;98977.91;5007940;28;20073;-61
2021/04/30 02:27:23;;;;;;;12.13;10.15;;;;;;;1.13;80.24;98977.03;4992462;28;20060;-60
2021/04/30 02:29:49;;;;;;;11.15;9.00;;;;;;;1.13;79.83;98987.59;4995172;28;20026;-61
2021/04/30 02:32:14;;;;;;;19.05;12.40;;;;;;;1.06;80.11;98980.41;4995923;28;20042;-60
2021/04/30 02:34:39;;;;;;;10.55;9.45;;;;;;;1.08;80.32;98988.97;4996110;28;20531;-60
2021/04/30 02:37:05;;;;;;;14.20;11.45;;;;;;;1.08;80.47;98985.53;4995674;28;20034;-61
2021/04/30 02:39:30;;;;;;;13.02;10.80;;;;;;;1.12;79.80;98978.03;4996098;28;20030;-61
2021/04/30 02:41:56;;;;;;;12.38;11.18;;;;;;;1.01;80.42;98977.53;4995608;28;20042;-61
2021/04/30 02:44:21;;;;;;;14.40;11.82;;;;;;;0.91;80.77;98982.28;4996262;28;20428;-60
2021/04/30 02:46:46;;;;;;;13.63;11.70;;;;;;;0.93;80.72;98988.19;4994423;28;20377;-61
2021/04/30 02:49:15;;;;;;;12.35;10.48;;;;;;;0.94;81.22;99000.38;4996139;28;20057;-60
2021/04/30 02:51:40;;;;;;;14.02;11.55;;;;;;;0.86;81.13;98995.22;4995525;28;20393;-61
2021/04/30 02:54:06;;;;;;;8.25;6.05;;;;;;;0.92;81.25;98986.53;4995813;28;20034;-60
2021/04/30 02:56:32;;;;;;;15.68;12.30;;;;;;;0.94;81.22;98987.19;4993824;28;20481;-60
2021/04/30 02:58:58;;;;;;;15.43;12.25;;;;;;;0.90;81.16;98999.13;4995783;28;20109;-61
2021/04/30 03:01:23;;;;;;;13.00;11.55;;;;;;;0.83;81.33;98998.22;5010341;28;20089;-61
2021/04/30 03:03:49;;;;;;;15.82;11.70;;;;;;;0.79;81.13;98997.78;4995670;28;20030;-60
2021/04/30 03:06:14;;;;;;;12.18;10.32;;;;;;;0.76;81.34;98994.69;4977859;28;20386;-60
2021/04/30 03:08:40;;;;;;;13.95;11.35;;;;;;;0.72;81.30;98996.06;4995451;28;20526;-61
2021/04/30 03:11:05;;;;;;;12.48;10.23;;;;;;;0.66;81.99;98994.97;4995229;28;20046;-60
2021/04/30 03:13:31;;;;;;;13.95;11.95;;;;;;;0.57;81.43;98991.63;4995680;28;20038;-61
2021/04/30 03:15:57;;;;;;;13.70;11.98;;;;;;;0.51;81.64;98994.19;4994947;28;20046;-61
2021/04/30 03:18:22;;;;;;;12.60;10.88;;;;;;;0.49;82.09;98983.81;4995500;28;20038;-60
2021/04/30 03:20:47;;;;;;;14.43;11.95;;;;;;;0.49;82.07;98990.91;4994897;28;20037;-61
2021/04/30 03:23:13;;;;;;;14.13;11.63;;;;;;;0.51;81.83;98984.44;4995377;28;20030;-60
2021/04/30 03:25:38;;;;;;;15.93;11.35;;;;;;;0.45;81.81;98968.53;4994536;28;20035;-61
2021/04/30 03:28:04;;;;;;;15.45;11.55;;;;;;;0.46;82.28;98981.53;4995488;28;20457;-61
2021/04/30 03:30:29;;;;;;;13.23;11.55;;;;;;;0.40;82.24;98982.25;4995009;28;20043;-61
2021/04/30 03:32:54;;;;;;;13.77;11.90;;;;;;;0.32;82.37;98985.00;4995140;28;20022;-60
2021/04/30 03:35:20;;;;;;;15.02;13.25;;;;;;;0.31;82.83;98981.53;4994564;28;20511;-60
2021/04/30 03:37:46;;;;;;;18.75;13.23;;;;;;;0.33;82.67;98986.66;4993938;28;20381;-61
2021/04/30 03:40:12;;;;;;;14.57;12.15;;;;;;;0.35;82.33;98988.09;4994066;28;20026;-60
2021/04/30 03:42:37;;;;;;;13.15;11.80;;;;;;;0.38;82.28;98989.56;4994861;28;20109;-61
2021/04/30 03:45:04;;;;;;;17.15;12.23;;;;;;;0.38;82.06;98989.56;4994583;28;20042;-61
2021/04/30 03:47:29;;;;;;;13.85;12.40;;;;;;;0.42;82.21;98990.81;4994795;28;20022;-60
2021/04/30 03:49:55;;;;;;;14.20;11.45;;;;;;;0.86;80.89;98992.59;4994761;28;20035;-61
2021/04/30 03:52:21;;;;;;;15.73;12.85;;;;;;;0.56;81.83;98995.25;4980756;28;20045;-61
2021/04/30 03:54:46;;;;;;;13.38;11.95;;;;;;;0.53;81.67;98993.00;5014113;28;20069;-61
2021/04/30 03:57:12;;;;;;;15.52;11.93;;;;;;;0.51;82.15;98999.47;5013741;28;20049;-61
2021/04/30 03:59:37;;;;;;;16.75;12.48;;;;;;;0.60;81.53;98998.34;5012964;28;20026;-61
2021/04/30 04:02:02;;;;;;;13.65;11.20;;;;;;;0.71;81.10;98999.72;5013761;28;20042;-61
2021/04/30 04:04:28;;;;;;;14.32;11.70;;;;;;;0.68;80.81;98997.44;5014311;28;20045;-61
2021/04/30 04:06:53;;;;;;;14.90;11.25;;;;;;;0.83;81.37;99006.16;5013717;28;20042;-60
2021/04/30 04:09:19;;;;;;;15.35;12.30;;;;;;;0.81;80.44;99006.31;5013996;28;20038;-61
2021/04/30 04:11:45;;;;;;;14.30;12.63;;;;;;;0.80;80.89;98998.59;5013550;28;20038;-61
2021/04/30 04:14:10;;;;;;;15.13;12.18;;;;;;;0.86;81.13;99005.78;5014008;28;20036;-61
2021/04/30 04:16:36;;;;;;;17.52;11.68;;;;;;;0.90;80.86;99004.41;5013583;28;20455;-61
2021/04/30 04:19:01;;;;;;;16.13;12.25;;;;;;;0.84;81.05;99003.31;5013901;28;20030;-60
2021/04/30 04:21:27;;;;;;;14.23;12.43;;;;;;;0.94;80.49;99000.38;5013471;28;20088;-60
2021/04/30 04:23:52;;;;;;;12.85;11.52;;;;;;;0.94;81.56;99007.47;5013665;28;20022;-61
2021/04/30 04:26:18;;;;;;;13.65;12.00;;;;;;;0.93;80.38;99017.22;5013448;28;20484;-60
2021/04/30 04:28:43;;;;;;;13.25;11.63;;;;;;;0.87;79.81;99010.03;4996302;28;20026;-60
2021/04/30 04:31:09;;;;;;;15.15;10.63;;;;;;;0.79;80.44;99010.16;5013545;28;20034;-60
2021/04/30 04:33:34;;;;;;;13.00;11.63;;;;;;;0.89;80.76;99015.94;5013978;28;20495;-60
2021/04/30 04:35:59;;;;;;;13.10;11.57;;;;;;;1.01;80.30;99005.75;5013307;28;20377;-62
2021/04/30 04:38:26;;;;;;;14.77;12.15;;;;;;;1.14;80.17;99011.16;5013718;28;20473;-60
2021/04/30 04:40:52;;;;;;;14.57;12.15;;;;;;;1.20;80.00;99013.06;5013291;28;20042;-60
2021/04/30 04:43:18;;;;;;;13.75;11.80;;;;;;;1.31;80.04;99011.75;5012382;28;20021;-60
2021/04/30 04:45:43;;;;;;;12.52;11.23;;;;;;;1.36;79.85;99014.63;4995669;28;20030;-60
2021/04/30 04:48:09;;;;;;;17.00;12.65;;;;;;;1.44;79.73;99011.06;5013643;28;20029;-60
2021/04/30 04:50:34;;;;;;;10.80;8.98;;;;;;;1.53;79.86;99009.13;5013136;28;20512;-60
2021/04/30 04:53:00;;;;;;;14.45;11.88;;;;;;;1.58;79.81;99012.00;5012894;28;20034;-60
2021/04/30 04:55:25;;;;;;;14.98;12.98;;;;;;;1.54;80.37;99023.94;5013132;28;20493;-60
2021/04/30 04:57:50;;;;;;;15.95;13.18;;;;;;;1.61;80.35;99028.28;5013646;28;20034;-60
2021/04/30 05:00:16;;;;;;;14.93;11.15;;;;;;;1.66;80.47;99030.38;5013054;28;20034;-60
2021/04/30 05:02:42;;;;;;;15.60;13.55;;;;;;;1.62;80.53;99031.75;5013295;28;20105;-60
2021/04/30 05:05:08;;;;;;;13.75;12.02;;;;;;;1.54;81.02;99037.97;5012545;28;20030;-60
2021/04/30 05:07:33;;;;;;;10.50;8.38;;;;;;;1.64;79.88;99042.94;5013045;28;20050;-60
2021/04/30 05:09:59;;;;;;;10.55;8.48;;;;;;;1.61;80.56;99044.13;5013376;28;20045;-60
2021/04/30 05:12:24;;;;;;;14.80;12.25;;;;;;;1.59;80.64;99038.22;5012844;28;20042;-60
2021/04/30 05:14:50;;;;;;;13.60;12.23;;;;;;;1.64;80.45;99037.66;4995534;28;20061;-60
2021/04/30 05:17:15;;;;;;;14.00;12.25;;;;;;;1.72;80.57;99033.06;4995228;28;20077;-60
2021/04/30 05:19:41;;;;;;;13.00;10.75;;;;;;;1.83;80.26;99037.03;4995626;28;20113;-60
2021/04/30 05:22:09;;;;;;;15.38;12.05;;;;;;;1.72;80.08;99025.16;5012660;28;20038;-60
2021/04/30 05:24:35;;;;;;;12.13;10.27;;;;;;;2.01;78.85;99023.34;5013381;28;20030;-60
2021/04/30 05:27:04;;;;;;;13.68;11.05;;;;;;;2.36;77.22;99029.47;5012675;28;20500;-60
2021/04/30 05:29:29;;;;;;;13.05;11.63;;;;;;;2.52;77.32;99024.88;4979361;28;20392;-60
2021/04/30 05:31:55;;;;;;;15.95;10.65;;;;;;;2.74;76.24;99029.06;5012797;28;20034;-60
2021/04/30 05:34:20;;;;;;;13.45;11.30;;;;;;;2.95;76.13;99027.34;5011720;28;20026;-61
2021/04/30 05:36:46;;;;;;;15.05;11.27;;;;;;;3.54;74.25;99031.94;5012475;28;20042;-60
2021/04/30 05:39:11;;;;;;;11.85;10.63;;;;;;;4.31;70.74;99030.53;5012980;28;20022;-61
2021/04/30 05:41:37;;;;;;;10.98;9.63;;;;;;;4.19;69.08;99037.47;4994876;28;20042;-60
2021/04/30 05:44:02;;;;;;;15.20;9.07;;;;;;;4.13;69.28;99033.00;4995314;28;20104;-60
2021/04/30 05:46:28;;;;;;;10.40;9.30;;;;;;;4.35;68.34;99030.94;5012473;28;20049;-61
2021/04/30 05:48:53;;;;;;;11.20;8.80;;;;;;;4.11;69.42;99033.19;5012923;28;20037;-61
2021/04/30 05:51:19;;;;;;;9.82;8.10;;;;;;;4.66;67.69;99042.72;5012444;28;20034;-60
2021/04/30 05:53:44;;;;;;;9.98;8.70;;;;;;;4.88;67.33;99035.28;4994912;28;20026;-61
2021/04/30 05:56:09;;;;;;;10.65;8.40;;;;;;;6.38;62.76;99045.38;5012118;28;20046;-61
2021/04/30 05:58:35;;;;;;;12.73;7.43;;;;;;;7.34;58.17;99042.03;5013013;28;20030;-61
2021/04/30 06:01:00;;;;;;;9.75;8.02;;;;;;;9.14;53.55;99052.38;5012351;28;20038;-60
2021/04/30 06:03:26;;;;;;;10.48;7.43;;;;;;;9.46;52.29;99059.91;4997307;28;20018;-60
2021/04/30 06:05:51;;;;;;;7.53;6.72;;;;;;;8.77;54.13;99055.34;4998500;28;20488;-60
2021/04/30 06:08:16;;;;;;;8.20;6.90;;;;;;;7.93;56.25;99050.19;5016438;28;20057;-61
2021/04/30 06:10:42;;;;;;;9.55;7.05;;;;;;;7.22;58.38;99048.34;5015868;28;20050;-61
2021/04/30 06:13:08;;;;;;;8.40;6.85;;;;;;;6.23;61.16;99038.53;5016437;28;20026;-60
2021/04/30 06:15:33;;;;;;;8.80;7.75;;;;;;;5.93;62.79;99037.56;5015780;28;20034;-60
2021/04/30 06:17:59;;;;;;;10.63;8.35;;;;;;;5.65;63.96;99041.44;5016342;28;20025;-60
2021/04/30 06:20:25;;;;;;;12.43;8.50;;;;;;;5.15;67.09;99036.00;5015846;28;20033;-60
2021/04/30 06:22:50;;;;;;;9.70;7.93;;;;;;;5.04;67.42;99028.69;5016461;28;20092;-60
2021/04/30 06:25:15;;;;;;;12.75;8.93;;;;;;;5.04;67.61;99031.34;5016015;28;20033;-60
2021/04/30 06:27:41;;;;;;;10.38;8.65;;;;;;;5.21;68.03;99035.16;4998617;28;20183;-60
2021/04/30 06:30:07;;;;;;;11.18;8.82;;;;;;;5.06;68.28;99034.59;5015665;28;20034;-60
2021/04/30 06:32:32;;;;;;;10.40;8.63;;;;;;;5.04;67.21;99029.53;5016095;28;20030;-60
2021/04/30 06:34:57;;;;;;;11.65;8.15;;;;;;;5.25;66.27;99031.03;5015915;28;20034;-60
2021/04/30 06:37:26;;;;;;;14.32;8.75;;;;;;;5.27;67.96;99029.00;5015456;28;20045;-60
2021/04/30 06:39:52;;;;;;;12.13;8.68;;;;;;;5.19;68.91;99026.56;5015858;28;20029;-60
2021/04/30 06:42:18;;;;;;;10.75;9.00;;;;;;;5.24;68.58;99033.91;5015443;28;20042;-60
2021/04/30 06:44:43;;;;;;;11.23;9.05;;;;;;;5.11;68.72;99040.09;5015901;28;20040;-60
2021/04/30 06:47:08;;;;;;;11.27;8.32;;;;;;;5.20;68.33;99041.50;5015272;28;20038;-60
2021/04/30 06:49:34;;;;;;;14.13;8.85;;;;;;;5.84;66.60;99037.84;5015682;28;20380;-61
2021/04/30 06:51:59;;;;;;;11.50;8.95;;;;;;;5.71;65.67;99039.75;5015296;28;20403;-60
2021/04/30 06:54:25;;;;;;;10.85;8.13;;;;;;;5.70;65.36;99040.81;5015416;28;20041;-60
2021/04/30 06:56:50;;;;;;;11.02;8.93;;;;;;;5.42;66.72;99047.31;5015136;28;20034;-60
2021/04/30 06:59:16;;;;;;;11.77;9.00;;;;;;;5.71;65.14;99050.41;4997982;28;20037;-59
2021/04/30 07:01:41;;;;;;;12.65;9.25;;;;;;;5.54;65.94;99048.25;5015139;28;20038;-61
2021/04/30 07:04:07;;;;;;;14.43;9.18;;;;;;;5.49;66.52;99050.75;5014365;28;20057;-60
2021/04/30 07:06:34;;;;;;;10.80;9.13;;;;;;;5.76;65.28;99051.38;5014907;28;20046;-60
2021/04/30 07:08:59;;;;;;;10.25;8.90;;;;;;;5.67;65.17;99050.03;5015119;28;20153;-60
2021/04/30 07:11:24;;;;;;;11.73;8.60;;;;;;;5.41;65.82;99046.47;5014824;28;20485;-60
2021/04/30 07:13:50;;;;;;;11.40;9.73;;;;;;;5.61;65.25;99054.34;5014977;28;20025;-61
2021/04/30 07:16:15;;;;;;;11.15;9.27;;;;;;;5.47;67.01;99057.31;5014339;28;20045;-60
2021/04/30 07:18:41;;;;;;;12.25;9.88;;;;;;;5.75;66.27;99059.59;4997764;28;20030;-60
2021/04/30 07:21:06;;;;;;;16.77;10.07;;;;;;;5.99;65.08;99058.81;5014562;28;20050;-60
2021/04/30 07:23:33;;;;;;;12.63;10.10;;;;;;;6.09;64.84;99066.31;5015233;28;20374;-60
2021/04/30 07:25:59;;;;;;;12.60;10.00;;;;;;;6.13;64.41;99059.53;5014537;28;20042;-60
2021/04/30 07:28:25;;;;;;;12.63;9.93;;;;;;;6.03;65.69;99064.53;5014931;28;20105;-60
2021/04/30 07:30:51;;;;;;;11.02;9.57;;;;;;;6.67;62.84;99068.66;5014589;28;20042;-60
2021/04/30 07:33:16;;;;;;;11.60;9.10;;;;;;;7.26;60.34;99054.84;5015374;28;20026;-60
2021/04/30 07:35:42;;;;;;;9.82;8.13;;;;;;;7.26;60.18;99060.19;5014258;28;20034;-60
2021/04/30 07:38:08;;;;;;;12.70;9.02;;;;;;;7.37;59.42;99067.44;5014996;28;20165;-60
2021/04/30 07:40:33;;;;;;;10.35;8.75;;;;;;;7.57;59.61;99064.50;4996818;28;20045;-60
2021/04/30 07:42:59;;;;;;;11.43;9.13;;;;;;;7.81;59.52;99068.03;5014717;28;20105;-60
2021/04/30 07:45:24;;;;;;;13.80;9.43;;;;;;;7.88;58.79;99065.28;5014291;28;20040;-60
2021/04/30 07:47:50;;;;;;;11.52;8.90;;;;;;;7.89;58.27;99062.38;5014526;28;20033;-60
2021/04/30 07:50:15;;;;;;;11.30;8.98;;;;;;;7.34;60.12;99063.38;5014153;28;20026;-60
2021/04/30 07:52:40;;;;;;;14.18;9.27;;;;;;;7.86;57.63;99056.66;5014594;28;20018;-60
2021/04/30 07:55:06;;;;;;;10.32;8.73;;;;;;;7.96;57.67;99049.75;5014170;28;20487;-61
2021/04/30 07:57:34;;;;;;;11.48;8.90;;;;;;;7.84;57.63;99051.59;5014578;28;20025;-61
2021/04/30 08:00:00;;;;;;;12.27;9.05;;;;;;;8.18;57.73;99055.31;5014035;28;20036;-61
2021/04/30 08:02:25;;;;;;;11.80;8.85;;;;;;;8.20;59.04;99058.59;5014018;28;20046;-60
2021/04/30 08:04:51;;;;;;;11.77;9.20;;;;;;;8.11;58.41;99060.00;5014514;28;20365;-60
2021/04/30 08:07:16;;;;;;;12.40;9.80;;;;;;;7.62;59.82;99053.97;5013634;28;20064;-61
2021/04/30 08:09:42;;;;;;;12.48;9.55;;;;;;;6.75;62.63;99056.09;5014268;28;20080;-61
2021/04/30 08:12:08;;;;;;;13.70;10.55;;;;;;;6.42;65.47;99062.56;5012488;28;20038;-61
2021/04/30 08:14:33;;;;;;;12.88;10.13;;;;;;;6.48;64.71;99077.63;5014123;28;20080;-61
2021/04/30 08:16:58;;;;;;;14.35;10.23;;;;;;;7.00;62.21;99078.13;5013735;28;20046;-61
2021/04/30 08:19:25;;;;;;;12.70;9.40;;;;;;;7.25;61.52;99069.22;5013962;28;20105;-61
2021/04/30 08:21:51;;;;;;;12.38;10.13;;;;;;;7.08;62.65;99082.34;5013572;28;20048;-61
2021/04/30 08:24:16;;;;;;;14.88;10.50;;;;;;;7.24;61.84;99072.91;5013781;28;20041;-61
2021/04/30 08:26:41;;;;;;;19.17;10.40;;;;;;;7.37;61.69;99080.75;5011413;28;20084;-62
2021/04/30 08:29:07;;;;;;;12.02;9.85;;;;;;;7.41;60.30;99081.91;4996364;28;20029;-61
2021/04/30 08:31:32;;;;;;;12.23;10.55;;;;;;;7.08;61.79;99079.66;5013366;28;20341;-60
2021/04/30 08:33:58;;;;;;;14.45;10.70;;;;;;;6.54;64.38;99084.78;5013698;28;20110;-61
2021/04/30 08:36:23;;;;;;;13.27;9.90;;;;;;;6.98;62.55;99082.06;5013179;28;20038;-61
2021/04/30 08:38:49;;;;;;;13.27;11.10;;;;;;;5.68;66.82;99080.09;4996392;28;20018;-61
2021/04/30 08:41:17;;;;;;;16.95;11.00;;;;;;;6.05;66.21;99073.09;5013441;28;20037;-61
2021/04/30 08:43:42;;;;;;;14.70;11.15;;;;;;;6.44;64.85;99071.97;5013630;28;20026;-61
2021/04/30 08:46:11;;;;;;;14.15;11.02;;;;;;;6.34;65.52;99076.13;5011998;28;20038;-62
2021/04/30 08:48:36;;;;;;;15.20;11.07;;;;;;;6.74;64.95;99073.06;5013754;28;20044;-61
2021/04/30 08:51:02;;;;;;;14.85;11.40;;;;;;;6.59;65.75;99070.78;5011815;28;20488;-62
2021/04/30 08:53:27;;;;;;;14.98;11.40;;;;;;;6.33;65.11;99075.31;4996049;28;20388;-62
2021/04/30 08:55:53;;;;;;;13.20;11.38;;;;;;;6.70;63.70;99070.88;5012589;28;20045;-61
2021/04/30 08:58:26;;;;;;;13.07;10.75;;;;;;;6.26;65.43;99079.88;5013496;28;20030;-62
2021/04/30 09:00:52;;;;;;;13.32;11.43;;;;;;;6.79;63.01;99078.56;4996375;28;20539;-60
2021/04/30 09:03:18;;;;;;;12.43;11.13;;;;;;;6.57;63.84;99081.66;5013621;28;20034;-62
2021/04/30 09:05:50;;;;;;;13.77;11.10;;;;;;;7.30;62.18;99074.69;4995481;28;20408;-62
2021/04/30 09:08:17;;;;;;;12.60;10.98;;;;;;;8.05;59.75;99068.91;5013279;28;20038;-62
2021/04/30 09:10:47;;;;;;;12.65;10.80;;;;;;;7.66;59.44;99056.97;5012749;28;20038;-62
2021/04/30 09:13:14;;;;;;;11.20;9.75;;;;;;;8.21;58.68;99062.91;5013279;28;20026;-61
2021/04/30 09:15:40;;;;;;;11.68;10.07;;;;;;;8.54;56.62;99068.75;5012592;28;20173;-61
2021/04/30 09:18:19;;;;;;;12.95;9.55;;;;;;;9.04;55.83;99068.22;5013357;28;20034;-61
2021/04/30 09:20:45;;;;;;;13.50;10.07;;;;;;;9.00;55.41;99061.69;5012812;28;20030;-61
2021/04/30 09:23:29;;;;;;;13.80;10.57;;;;;;;8.62;55.97;99065.72;5013301;28;20026;-62
2021/04/30 09:25:55;;;;;;;12.10;9.82;;;;;;;9.69;54.12;99073.22;5011403;28;20041;-61
2021/04/30 09:28:21;;;;;;;19.38;10.00;;;;;;;11.39;48.25;99071.94;5013204;28;20385;-61
2021/04/30 09:30:46;;;;;;;13.55;9.95;;;;;;;11.96;47.35;99076.03;5012846;28;20088;-61
2021/04/30 09:33:21;;;;;;;10.98;9.18;;;;;;;12.53;44.99;99074.59;5011864;28;20038;-61
2021/04/30 09:35:54;;;;;;;11.77;8.73;;;;;;;12.21;45.80;99072.75;4994902;28;20404;-62
2021/04/30 09:38:32;;;;;;;15.18;9.48;;;;;;;11.50;47.58;99064.00;5014977;28;20022;-61
2021/04/30 09:41:00;;;;;;;12.90;9.82;;;;;;;12.39;46.02;99073.44;5016602;28;20508;-62
2021/04/30 09:43:26;;;;;;;13.13;8.93;;;;;;;13.36;42.94;99066.69;5017302;28;20131;-62
2021/04/30 09:45:52;;;;;;;12.15;8.95;;;;;;;12.89;44.30;99066.75;5016415;28;20038;-62
2021/04/30 09:48:17;;;;;;;11.60;9.32;;;;;;;12.03;46.54;99065.06;5016798;28;20029;-62
2021/04/30 09:50:43;;;;;;;12.10;8.90;;;;;;;11.94;45.96;99054.00;5016282;28;20033;-61
2021/04/30 09:53:13;;;;;;;19.60;10.20;;;;;;;10.27;50.50;99059.69;5017314;28;20029;-62
2021/04/30 09:55:42;;;;;;;12.63;9.68;;;;;;;10.74;49.88;99064.72;5015693;28;20045;-62
2021/04/30 09:58:26;;;;;;;16.92;9.52;;;;;;;11.65;47.94;99053.41;5016748;28;20127;-62
2021/04/30 10:00:53;;;;;;;16.67;9.45;;;;;;;12.51;45.44;99055.22;5016346;28;20034;-62
2021/04/30 10:03:19;;;;;;;15.73;9.40;;;;;;;11.51;47.01;99052.22;4998965;28;20495;-62
2021/04/30 10:06:19;;;;;;;16.55;9.80;;;;;;;11.75;46.29;99050.81;5016056;28;20038;-62
2021/04/30 10:09:03;;;;;;;16.65;10.07;;;;;;;11.15;48.00;99049.13;4974972;28;20442;-62
2021/04/30 10:11:32;;;;;;;21.92;10.77;;;;;;;9.90;52.09;99036.88;4996440;28;20485;-62
2021/04/30 10:13:58;;;;;;;15.55;9.85;;;;;;;10.34;51.44;99041.63;4996746;28;20034;-62
2021/04/30 10:16:24;;;;;;;14.57;9.50;;;;;;;11.76;47.90;99038.25;4996163;28;20114;-62
2021/04/30 10:18:49;;;;;;;19.88;9.32;;;;;;;12.69;45.10;99043.25;4995460;28;20032;-62
2021/04/30 10:21:15;;;;;;;12.50;8.52;;;;;;;14.59;40.14;99041.72;4996449;28;20069;-62
2021/04/30 10:23:47;;;;;;;10.75;9.00;;;;;;;15.69;37.37;99037.19;4995466;28;20022;-62
2021/04/30 10:26:15;;;;;;;18.02;8.40;;;;;;;15.67;37.29;99037.44;4994929;28;20049;-60
2021/04/30 10:28:40;;;;;;;13.38;8.50;;;;;;;16.01;37.21;99025.09;5011459;28;20334;-63
2021/04/30 10:31:07;;;;;;;14.88;8.57;;;;;;;16.42;36.31;99028.22;4994585;28;20039;-62
2021/04/30 10:33:45;;;;;;;16.02;8.55;;;;;;;15.68;37.51;99022.06;5011493;28;20015;-63
2021/04/30 10:36:11;;;;;;;15.70;8.25;;;;;;;15.53;37.66;99036.50;4994714;28;20038;-62
2021/04/30 10:38:42;;;;;;;12.55;7.90;;;;;;;15.14;39.13;99034.53;4996424;28;20034;-61
2021/04/30 10:41:10;;;;;;;13.20;8.02;;;;;;;14.57;40.22;99041.19;4996003;28;20034;-61
2021/04/30 10:43:36;;;;;;;19.08;8.55;;;;;;;15.04;39.13;99034.56;4996191;28;20026;-61
2021/04/30 10:46:02;;;;;;;13.57;8.35;;;;;;;14.08;40.62;99033.66;4995848;28;20046;-62
2021/04/30 10:48:27;;;;;;;10.38;8.18;;;;;;;14.25;40.37;99023.41;4996192;28;20389;-61
2021/04/30 10:51:06;;;;;;;11.75;7.97;;;;;;;13.92;40.53;99030.16;4994927;28;20050;-61
2021/04/30 10:53:31;;;;;;;14.60;8.85;;;;;;;12.06;44.87;99021.59;5009844;28;20029;-61
2021/04/30 10:55:57;;;;;;;13.65;9.10;;;;;;;10.77;47.78;99018.63;4994383;28;20042;-61
2021/04/30 10:58:38;;;;;;;17.27;9.02;;;;;;;9.81;50.28;99013.44;4996121;28;20029;-63
2021/04/30 11:01:23;;;;;;;14.20;9.25;;;;;;;10.77;47.84;99022.13;5010561;28;20114;-62
2021/04/30 11:04:10;;;;;;;17.25;9.02;;;;;;;10.35;49.20;99027.16;4995899;28;20104;-63
2021/04/30 11:06:47;;;;;;;15.18;8.55;;;;;;;11.32;46.59;99014.97;4995493;28;20035;-61
2021/04/30 11:09:20;;;;;;;13.98;8.18;;;;;;;12.17;44.62;99017.09;5014305;28;20041;-63
2021/04/30 11:11:45;;;;;;;13.07;8.40;;;;;;;12.59;43.40;99018.97;5014283;28;20041;-62
2021/04/30 11:14:20;;;;;;;13.82;8.02;;;;;;;13.99;40.49;99009.16;5015117;28;20026;-63
2021/04/30 11:16:46;;;;;;;11.30;7.40;;;;;;;14.28;39.70;99014.78;4997264;28;20133;-61
2021/04/30 11:19:11;;;;;;;14.48;7.82;;;;;;;13.79;39.93;99012.66;5015292;28;20431;-61
2021/04/30 11:21:48;;;;;;;12.18;7.25;;;;;;;15.05;37.74;99014.56;5014637;28;20081;-62
2021/04/30 11:24:28;;;;;;;14.82;7.72;;;;;;;14.91;38.08;99008.19;5015189;28;20026;-61
2021/04/30 11:27:19;;;;;;;;;;;;;;;15.43;37.10;99012.25;5015322;28;20038;-61